createdAt,value
2022-12-25T00:00:33.901Z,49.32
2022-12-25T00:01:33.826Z,50.65
2022-12-25T00:02:33.895Z,50.39
2022-12-25T00:03:33.958Z,50.88
2022-12-25T00:04:33.805Z,49.26
2022-12-25T00:05:33.791Z,46.55
2022-12-25T00:06:33.810Z,50.89
2022-12-25T00:07:33.777Z,53.22
2022-12-25T00:08:33.738Z,50.74
2022-12-25T00:09:33.762Z,53.21
2022-12-25T00:10:33.792Z,48.58
2022-12-25T00:11:33.746Z,46.23
2022-12-25T00:12:33.737Z,51.99
2022-12-25T00:13:33.706Z,49.88
2022-12-25T00:14:33.808Z,43.71
2022-12-25T00:15:33.685Z,49.70
2022-12-25T00:16:33.721Z,49.53
2022-12-25T00:17:33.686Z,49.06
2022-12-25T00:18:33.725Z,46.65
2022-12-25T00:19:33.646Z,46.47
2022-12-25T00:20:33.635Z,49.53
2022-12-25T00:21:33.626Z,45.35
2022-12-25T00:22:33.644Z,46.63
2022-12-25T00:23:33.599Z,46.97
2022-12-25T00:24:33.592Z,54.51
2022-12-25T00:25:33.621Z,50.02
2022-12-25T00:26:33.585Z,46.47
2022-12-25T00:27:33.631Z,45.24
2022-12-25T00:28:33.600Z,48.72
2022-12-25T00:29:33.589Z,47.45
2022-12-25T00:30:33.622Z,50.28
2022-12-25T00:31:33.569Z,50.50
2022-12-25T00:32:33.503Z,49.58
2022-12-25T00:33:33.484Z,49.70
2022-12-25T00:34:33.532Z,46.40
2022-12-25T00:35:33.504Z,49.63
2022-12-25T00:36:37.877Z,48.79
2022-12-25T00:37:35.466Z,45.38
2022-12-25T00:38:33.459Z,51.17
2022-12-25T00:39:33.477Z,48.63
2022-12-25T00:40:33.484Z,48.58
2022-12-25T00:41:33.441Z,54.03
2022-12-25T00:42:33.475Z,47.46
2022-12-25T00:43:33.442Z,49.99
2022-12-25T00:44:34.424Z,49.42
2022-12-25T00:45:33.419Z,53.18
2022-12-25T00:46:33.421Z,52.01
2022-12-25T00:47:33.368Z,48.98
2022-12-25T00:48:33.361Z,46.56
2022-12-25T00:49:33.324Z,48.01
2022-12-25T00:50:33.372Z,48.22
2022-12-25T00:51:33.352Z,48.41
2022-12-25T00:52:33.299Z,50.10
2022-12-25T00:53:33.305Z,48.00
2022-12-25T00:54:33.314Z,47.73
2022-12-25T00:55:33.276Z,47.64
2022-12-25T00:56:33.247Z,48.23
2022-12-25T00:57:33.285Z,47.94
2022-12-25T00:58:33.229Z,51.93
2022-12-25T00:59:33.233Z,48.98
2022-12-25T01:00:33.240Z,44.81
2022-12-25T01:01:33.377Z,48.83
2022-12-25T01:02:33.392Z,44.96
2022-12-25T01:03:33.200Z,44.12
2022-12-25T01:04:33.210Z,45.90
2022-12-25T01:05:33.211Z,51.62
2022-12-25T01:06:33.178Z,55.87
2022-12-25T01:07:33.205Z,51.28
2022-12-25T01:08:33.180Z,45.93
2022-12-25T01:09:33.163Z,45.49
2022-12-25T01:10:33.111Z,53.73
2022-12-25T01:11:33.109Z,47.90
2022-12-25T01:12:33.118Z,50.75
2022-12-25T01:13:33.105Z,43.65
2022-12-25T01:14:33.076Z,47.53
2022-12-25T01:15:33.111Z,45.21
2022-12-25T01:16:33.120Z,42.44
2022-12-25T01:17:33.055Z,42.08
2022-12-25T01:18:33.040Z,42.24
2022-12-25T01:19:33.014Z,45.24
2022-12-25T01:20:33.011Z,48.05
2022-12-25T01:21:33.051Z,45.27
2022-12-25T01:22:32.980Z,44.28
2022-12-25T01:23:32.981Z,46.35
2022-12-25T01:24:33.039Z,46.95
2022-12-25T01:25:32.961Z,51.58
2022-12-25T01:26:32.952Z,43.39
2022-12-25T01:27:32.971Z,42.93
2022-12-25T01:28:32.913Z,44.92
2022-12-25T01:29:32.927Z,48.23
2022-12-25T01:30:32.925Z,45.36
2022-12-25T01:31:32.955Z,47.37
2022-12-25T01:32:32.885Z,42.44
2022-12-25T01:33:32.912Z,42.13
2022-12-25T01:34:32.873Z,43.63
2022-12-25T01:35:32.861Z,47.19
2022-12-25T01:36:32.883Z,49.22
2022-12-25T01:37:32.851Z,47.15
2022-12-25T01:38:32.823Z,43.35
2022-12-25T01:39:32.837Z,49.12
2022-12-25T01:40:32.801Z,43.69
2022-12-25T01:41:32.802Z,42.11
2022-12-25T01:42:32.833Z,45.32
2022-12-25T01:43:32.768Z,49.03
2022-12-25T01:44:32.755Z,46.76
2022-12-25T01:45:32.799Z,42.11
2022-12-25T01:46:32.753Z,42.62
2022-12-25T01:47:32.739Z,47.18
2022-12-25T01:48:32.745Z,43.07
2022-12-25T01:49:32.687Z,45.15
2022-12-25T01:50:33.701Z,47.09
2022-12-25T01:51:32.715Z,43.00
2022-12-25T01:52:32.661Z,42.62
2022-12-25T01:53:32.679Z,42.66
2022-12-25T01:54:32.688Z,46.55
2022-12-25T01:55:32.647Z,47.43
2022-12-25T01:56:32.632Z,43.56
2022-12-25T01:57:32.650Z,42.54
2022-12-25T01:58:32.642Z,48.37
2022-12-25T01:59:32.649Z,42.70
2022-12-25T02:00:32.615Z,42.72
2022-12-25T02:01:32.670Z,42.43
2022-12-25T02:02:32.806Z,43.87
2022-12-25T02:03:32.751Z,52.93
2022-12-25T02:04:32.546Z,47.43
2022-12-25T02:05:32.532Z,46.23
2022-12-25T02:06:32.546Z,43.99
2022-12-25T02:07:32.528Z,44.66
2022-12-25T02:08:32.527Z,44.24
2022-12-25T02:09:33.511Z,49.92
2022-12-25T02:10:32.532Z,43.95
2022-12-25T02:11:33.477Z,42.58
2022-12-25T02:12:32.507Z,44.50
2022-12-25T02:13:32.516Z,47.05
2022-12-25T02:14:32.452Z,48.27
2022-12-25T02:15:32.456Z,45.72
2022-12-25T02:16:32.509Z,42.50
2022-12-25T02:17:32.434Z,44.25
2022-12-25T02:18:32.448Z,43.91
2022-12-25T02:19:32.435Z,43.65
2022-12-25T02:20:32.397Z,46.21
2022-12-25T02:21:32.418Z,43.81
2022-12-25T02:22:32.369Z,44.42
2022-12-25T02:23:32.353Z,45.59
2022-12-25T02:24:32.411Z,41.91
2022-12-25T02:25:32.360Z,42.14
2022-12-25T02:26:32.332Z,41.89
2022-12-25T02:27:32.336Z,41.75
2022-12-25T02:28:32.300Z,41.83
2022-12-25T02:29:32.280Z,43.96
2022-12-25T02:30:32.326Z,44.17
2022-12-25T02:31:32.301Z,45.97
2022-12-25T02:32:32.261Z,44.23
2022-12-25T02:33:32.285Z,44.66
2022-12-25T02:34:32.254Z,45.37
2022-12-25T02:35:32.251Z,43.01
2022-12-25T02:36:32.274Z,48.52
2022-12-25T02:37:32.227Z,44.71
2022-12-25T02:38:32.211Z,49.31
2022-12-25T02:39:32.201Z,45.02
2022-12-25T02:40:32.207Z,42.60
2022-12-25T02:41:32.152Z,42.23
2022-12-25T02:42:32.176Z,41.89
2022-12-25T02:43:32.167Z,42.67
2022-12-25T02:44:32.153Z,47.50
2022-12-25T02:45:32.169Z,45.42
2022-12-25T02:46:32.211Z,42.75
2022-12-25T02:47:32.099Z,42.29
2022-12-25T02:48:32.124Z,42.66
2022-12-25T02:49:32.086Z,43.53
2022-12-25T02:50:32.068Z,44.36
2022-12-25T02:51:32.061Z,49.31
2022-12-25T02:52:32.068Z,45.39
2022-12-25T02:53:32.046Z,45.43
2022-12-25T02:54:32.035Z,50.96
2022-12-25T02:55:32.052Z,42.69
2022-12-25T02:56:32.010Z,42.21
2022-12-25T02:57:31.996Z,42.95
2022-12-25T02:58:32.017Z,45.24
2022-12-25T02:59:31.973Z,44.37
2022-12-25T03:00:31.962Z,43.14
2022-12-25T03:01:32.104Z,42.48
2022-12-25T03:02:31.990Z,43.57
2022-12-25T03:03:32.062Z,44.60
2022-12-25T03:04:31.967Z,48.62
2022-12-25T03:05:31.985Z,47.63
2022-12-25T03:06:31.937Z,45.30
2022-12-25T03:07:31.903Z,44.36
2022-12-25T03:08:31.886Z,43.87
2022-12-25T03:09:31.878Z,45.75
2022-12-25T03:10:31.924Z,47.91
2022-12-25T03:11:31.867Z,46.05
2022-12-25T03:12:31.834Z,47.34
2022-12-25T03:13:31.845Z,48.40
2022-12-25T03:14:31.820Z,46.32
2022-12-25T03:15:31.838Z,44.51
2022-12-25T03:16:31.851Z,44.30
2022-12-25T03:17:32.788Z,45.95
2022-12-25T03:18:31.768Z,42.13
2022-12-25T03:19:31.798Z,42.67
2022-12-25T03:20:31.762Z,44.42
2022-12-25T03:21:31.748Z,43.94
2022-12-25T03:22:31.760Z,49.11
2022-12-25T03:23:31.757Z,42.68
2022-12-25T03:24:31.714Z,42.37
2022-12-25T03:25:31.730Z,42.08
2022-12-25T03:26:31.709Z,42.08
2022-12-25T03:27:31.698Z,44.64
2022-12-25T03:28:31.711Z,45.98
2022-12-25T03:29:31.949Z,48.72
2022-12-25T03:30:32.712Z,48.97
2022-12-25T03:31:31.669Z,45.44
2022-12-25T03:32:31.633Z,46.48
2022-12-25T03:33:46.140Z,42.60
2022-12-25T03:34:33.634Z,44.73
2022-12-25T03:35:31.643Z,42.31
2022-12-25T03:36:31.614Z,42.21
2022-12-25T03:37:31.619Z,42.15
2022-12-25T03:38:31.578Z,44.90
2022-12-25T03:39:31.567Z,46.27
2022-12-25T03:40:31.590Z,44.99
2022-12-25T03:41:31.555Z,45.93
2022-12-25T03:42:31.567Z,44.67
2022-12-25T03:43:31.542Z,42.42
2022-12-25T03:44:31.503Z,42.06
2022-12-25T03:45:31.526Z,42.22
2022-12-25T03:46:31.573Z,44.87
2022-12-25T03:47:31.504Z,45.67
2022-12-25T03:48:31.483Z,44.02
2022-12-25T03:49:31.493Z,42.41
2022-12-25T03:50:31.470Z,42.08
2022-12-25T03:51:31.475Z,41.97
2022-12-25T03:52:31.460Z,45.53
2022-12-25T03:53:31.448Z,45.84
2022-12-25T03:54:31.452Z,47.08
2022-12-25T03:55:31.417Z,42.38
2022-12-25T03:56:31.417Z,42.01
2022-12-25T03:57:31.396Z,43.34
2022-12-25T03:58:31.409Z,47.93
2022-12-25T03:59:31.361Z,44.70
2022-12-25T04:00:31.400Z,46.82
2022-12-25T04:01:31.528Z,47.45
2022-12-25T04:02:31.417Z,42.43
2022-12-25T04:03:31.370Z,42.62
2022-12-25T04:04:31.304Z,46.78
2022-12-25T04:05:31.292Z,46.58
2022-12-25T04:06:31.342Z,44.02
2022-12-25T04:07:31.304Z,43.15
2022-12-25T04:08:31.258Z,48.07
2022-12-25T04:09:31.260Z,47.28
2022-12-25T04:10:31.290Z,45.82
2022-12-25T04:11:31.296Z,45.12
2022-12-25T04:12:31.260Z,44.50
2022-12-25T04:13:31.223Z,47.25
2022-12-25T04:14:31.209Z,45.97
2022-12-25T04:15:31.254Z,43.05
2022-12-25T04:16:31.233Z,43.98
2022-12-25T04:17:31.186Z,43.52
2022-12-25T04:18:31.210Z,44.00
2022-12-25T04:19:31.179Z,45.67
2022-12-25T04:20:31.150Z,47.75
2022-12-25T04:21:31.132Z,43.96
2022-12-25T04:22:31.152Z,46.33
2022-12-25T04:23:31.115Z,43.51
2022-12-25T04:24:31.112Z,46.09
2022-12-25T04:25:31.143Z,43.83
2022-12-25T04:26:31.079Z,45.95
2022-12-25T04:27:31.059Z,49.90
2022-12-25T04:28:31.089Z,47.40
2022-12-25T04:29:31.086Z,46.22
2022-12-25T04:30:31.029Z,47.05
2022-12-25T04:31:31.071Z,43.01
2022-12-25T04:32:30.998Z,43.14
2022-12-25T04:33:30.998Z,42.49
2022-12-25T04:34:31.023Z,43.21
2022-12-25T04:35:30.983Z,44.94
2022-12-25T04:36:30.961Z,43.76
2022-12-25T04:37:31.009Z,45.01
2022-12-25T04:38:30.939Z,44.70
2022-12-25T04:39:30.943Z,44.69
2022-12-25T04:40:30.960Z,48.22
2022-12-25T04:41:30.901Z,46.88
2022-12-25T04:42:30.909Z,52.54
2022-12-25T04:43:30.923Z,45.84
2022-12-25T04:44:30.862Z,46.22
2022-12-25T04:45:30.858Z,43.26
2022-12-25T04:46:30.893Z,46.57
2022-12-25T04:47:30.873Z,45.01
2022-12-25T04:48:30.842Z,46.44
2022-12-25T04:49:30.838Z,45.56
2022-12-25T04:50:30.804Z,45.84
2022-12-25T04:51:30.821Z,46.64
2022-12-25T04:52:30.809Z,45.56
2022-12-25T04:53:30.795Z,44.01
2022-12-25T04:54:30.769Z,45.07
2022-12-25T04:55:30.787Z,42.24
2022-12-25T04:56:30.767Z,42.38
2022-12-25T04:57:30.732Z,46.35
2022-12-25T04:58:30.784Z,45.33
2022-12-25T04:59:30.737Z,42.17
2022-12-25T05:00:30.715Z,44.48
2022-12-25T05:01:30.838Z,43.69
2022-12-25T05:02:30.831Z,46.02
2022-12-25T05:03:30.749Z,49.59
2022-12-25T05:04:30.683Z,44.93
2022-12-25T05:05:30.701Z,44.08
2022-12-25T05:06:30.649Z,44.88
2022-12-25T05:07:30.644Z,42.95
2022-12-25T05:08:30.673Z,46.50
2022-12-25T05:09:30.608Z,46.11
2022-12-25T05:10:30.591Z,45.78
2022-12-25T05:11:30.639Z,46.59
2022-12-25T05:12:30.571Z,44.24
2022-12-25T05:13:30.570Z,43.50
2022-12-25T05:14:30.537Z,46.97
2022-12-25T05:15:30.561Z,46.97
2022-12-25T05:16:30.721Z,45.19
2022-12-25T05:17:30.540Z,45.90
2022-12-25T05:18:30.561Z,42.86
2022-12-25T05:19:30.483Z,43.33
2022-12-25T05:20:36.263Z,43.51
2022-12-25T05:21:32.519Z,46.09
2022-12-25T05:22:30.512Z,42.66
2022-12-25T05:23:30.454Z,42.59
2022-12-25T05:24:30.437Z,44.06
2022-12-25T05:25:30.520Z,44.56
2022-12-25T05:26:30.418Z,46.55
2022-12-25T05:27:30.409Z,45.89
2022-12-25T05:28:30.467Z,43.74
2022-12-25T05:29:30.397Z,46.51
2022-12-25T05:30:30.390Z,45.05
2022-12-25T05:31:30.429Z,45.41
2022-12-25T05:32:30.388Z,44.14
2022-12-25T05:33:30.403Z,44.21
2022-12-25T05:34:30.341Z,45.45
2022-12-25T05:35:31.377Z,44.43
2022-12-25T05:36:30.319Z,47.95
2022-12-25T05:37:30.326Z,45.56
2022-12-25T05:38:30.332Z,43.88
2022-12-25T05:39:30.285Z,46.61
2022-12-25T05:40:30.285Z,46.95
2022-12-25T05:41:34.187Z,47.52
2022-12-25T05:42:31.254Z,45.31
2022-12-25T05:43:30.249Z,45.21
2022-12-25T05:44:30.251Z,46.77
2022-12-25T05:45:30.222Z,44.54
2022-12-25T05:46:30.302Z,46.03
2022-12-25T05:47:30.244Z,46.43
2022-12-25T05:48:30.216Z,48.01
2022-12-25T05:49:30.213Z,47.73
2022-12-25T05:50:30.222Z,47.45
2022-12-25T05:51:30.172Z,46.55
2022-12-25T05:52:30.166Z,46.22
2022-12-25T05:53:30.190Z,45.35
2022-12-25T05:54:30.138Z,46.42
2022-12-25T05:55:30.152Z,48.27
2022-12-25T05:56:30.155Z,48.95
2022-12-25T05:57:30.148Z,50.02
2022-12-25T05:58:30.087Z,50.34
2022-12-25T05:59:30.092Z,51.40
2022-12-25T06:00:30.132Z,51.01
2022-12-25T06:01:30.222Z,50.27
2022-12-25T06:02:30.295Z,48.94
2022-12-25T06:03:30.220Z,49.27
2022-12-25T06:04:30.029Z,48.67
2022-12-25T06:05:30.009Z,48.79
2022-12-25T06:06:30.010Z,50.35
2022-12-25T06:07:29.988Z,51.64
2022-12-25T06:08:30.026Z,52.27
2022-12-25T06:09:29.964Z,51.86
2022-12-25T06:10:29.978Z,52.88
2022-12-25T06:11:29.966Z,55.13
2022-12-25T06:12:29.945Z,51.47
2022-12-25T06:13:29.912Z,52.38
2022-12-25T06:14:29.956Z,51.11
2022-12-25T06:15:29.899Z,49.24
2022-12-25T06:16:37.278Z,50.05
2022-12-25T06:17:31.897Z,47.93
2022-12-25T06:18:29.864Z,47.06
2022-12-25T06:19:29.852Z,48.08
2022-12-25T06:20:29.889Z,48.08
2022-12-25T06:21:29.855Z,48.07
2022-12-25T06:22:29.832Z,47.20
2022-12-25T06:23:29.877Z,48.68
2022-12-25T06:24:29.806Z,48.06
2022-12-25T06:25:29.790Z,47.23
2022-12-25T06:26:29.809Z,46.36
2022-12-25T06:27:29.793Z,48.27
2022-12-25T06:28:29.800Z,46.88
2022-12-25T06:29:29.748Z,49.47
2022-12-25T06:30:29.767Z,48.01
2022-12-25T06:31:29.784Z,46.88
2022-12-25T06:32:29.737Z,46.08
2022-12-25T06:33:29.733Z,47.79
2022-12-25T06:34:29.704Z,45.76
2022-12-25T06:35:29.707Z,45.30
2022-12-25T06:36:29.712Z,45.22
2022-12-25T06:37:29.673Z,48.93
2022-12-25T06:38:29.661Z,52.90
2022-12-25T06:39:29.678Z,47.20
2022-12-25T06:40:29.644Z,46.95
2022-12-25T06:41:29.628Z,46.25
2022-12-25T06:42:29.640Z,46.57
2022-12-25T06:43:29.602Z,47.62
2022-12-25T06:44:29.606Z,47.62
2022-12-25T06:45:29.695Z,46.86
2022-12-25T06:46:29.602Z,46.75
2022-12-25T06:47:29.567Z,44.19
2022-12-25T06:48:29.570Z,43.40
2022-12-25T06:49:29.543Z,44.18
2022-12-25T06:50:29.529Z,44.50
2022-12-25T06:51:29.567Z,45.11
2022-12-25T06:52:29.505Z,49.29
2022-12-25T06:53:35.228Z,48.59
2022-12-25T06:54:31.528Z,47.05
2022-12-25T06:55:29.477Z,46.18
2022-12-25T06:56:29.463Z,47.58
2022-12-25T06:57:29.483Z,47.67
2022-12-25T06:58:29.444Z,46.26
2022-12-25T06:59:29.449Z,47.40
2022-12-25T07:00:29.458Z,51.32
2022-12-25T07:01:29.530Z,44.55
2022-12-25T07:02:29.483Z,46.86
2022-12-25T07:03:29.468Z,46.14
2022-12-25T07:04:29.384Z,46.11
2022-12-25T07:05:29.380Z,45.54
2022-12-25T07:06:29.375Z,46.98
2022-12-25T07:07:29.342Z,44.40
2022-12-25T07:08:29.319Z,42.73
2022-12-25T07:09:30.340Z,45.54
2022-12-25T07:10:29.324Z,47.79
2022-12-25T07:11:29.307Z,50.60
2022-12-25T07:12:29.280Z,44.97
2022-12-25T07:13:29.287Z,45.80
2022-12-25T07:14:29.287Z,50.52
2022-12-25T07:15:29.242Z,48.67
2022-12-25T07:16:29.309Z,49.07
2022-12-25T07:17:29.229Z,46.74
2022-12-25T07:18:29.227Z,52.42
2022-12-25T07:19:29.221Z,50.45
2022-12-25T07:20:29.232Z,48.59
2022-12-25T07:21:29.191Z,47.44
2022-12-25T07:22:29.227Z,50.16
2022-12-25T07:23:30.181Z,49.34
2022-12-25T07:24:29.157Z,51.88
2022-12-25T07:25:35.226Z,45.73
2022-12-25T07:26:31.154Z,43.63
2022-12-25T07:27:29.135Z,47.33
2022-12-25T07:28:29.158Z,44.89
2022-12-25T07:29:29.097Z,50.01
2022-12-25T07:30:29.171Z,46.18
2022-12-25T07:31:29.154Z,45.90
2022-12-25T07:32:29.072Z,44.17
2022-12-25T07:33:29.058Z,46.14
2022-12-25T07:34:29.525Z,49.23
2022-12-25T07:35:29.022Z,45.95
2022-12-25T07:36:29.040Z,47.96
2022-12-25T07:37:29.029Z,49.52
2022-12-25T07:38:28.982Z,52.50
2022-12-25T07:39:29.002Z,46.69
2022-12-25T07:40:29.002Z,48.84
2022-12-25T07:41:28.974Z,49.71
2022-12-25T07:42:28.970Z,48.03
2022-12-25T07:43:28.938Z,46.41
2022-12-25T07:44:28.962Z,50.99
2022-12-25T07:45:28.939Z,47.87
2022-12-25T07:46:28.998Z,49.90
2022-12-25T07:47:28.914Z,51.30
2022-12-25T07:48:28.891Z,50.67
2022-12-25T07:49:28.887Z,49.42
2022-12-25T07:50:28.878Z,53.01
2022-12-25T07:51:28.873Z,48.05
2022-12-25T07:52:28.833Z,49.68
2022-12-25T07:53:28.845Z,47.75
2022-12-25T07:54:28.824Z,47.21
2022-12-25T07:55:28.819Z,53.21
2022-12-25T07:56:28.804Z,48.20
2022-12-25T07:57:28.791Z,45.39
2022-12-25T07:58:28.796Z,46.81
2022-12-25T07:59:28.767Z,50.26
2022-12-25T08:00:28.752Z,53.64
2022-12-25T08:01:28.956Z,48.36
2022-12-25T08:02:29.081Z,49.34
2022-12-25T08:03:28.936Z,49.12
2022-12-25T08:04:28.733Z,52.97
2022-12-25T08:05:28.715Z,51.00
2022-12-25T08:06:28.712Z,53.69
2022-12-25T08:07:28.710Z,47.12
2022-12-25T08:08:28.676Z,44.96
2022-12-25T08:09:28.667Z,45.48
2022-12-25T08:10:28.657Z,50.74
2022-12-25T08:11:28.642Z,47.61
2022-12-25T08:12:28.624Z,46.39
2022-12-25T08:13:28.616Z,48.49
2022-12-25T08:14:28.620Z,52.92
2022-12-25T08:15:28.596Z,49.04
2022-12-25T08:16:28.652Z,50.13
2022-12-25T08:17:28.598Z,47.05
2022-12-25T08:18:30.072Z,48.95
2022-12-25T08:19:29.548Z,48.86
2022-12-25T08:20:28.547Z,50.53
2022-12-25T08:21:28.542Z,49.65
2022-12-25T08:22:28.524Z,50.63
2022-12-25T08:23:28.489Z,53.09
2022-12-25T08:24:28.488Z,49.66
2022-12-25T08:25:28.494Z,49.11
2022-12-25T08:26:28.488Z,51.33
2022-12-25T08:27:28.450Z,51.70
2022-12-25T08:28:28.484Z,50.37
2022-12-25T08:29:28.437Z,52.12
2022-12-25T08:30:28.514Z,49.79
2022-12-25T08:31:28.529Z,50.19
2022-12-25T08:32:28.414Z,52.30
2022-12-25T08:33:28.392Z,49.31
2022-12-25T08:34:28.407Z,49.67
2022-12-25T08:35:28.403Z,48.15
2022-12-25T08:36:28.354Z,49.98
2022-12-25T08:37:28.350Z,50.98
2022-12-25T08:38:28.335Z,52.98
2022-12-25T08:39:28.364Z,51.07
2022-12-25T08:40:28.339Z,50.64
2022-12-25T08:41:28.317Z,53.96
2022-12-25T08:42:28.321Z,51.07
2022-12-25T08:43:28.265Z,50.93
2022-12-25T08:44:28.260Z,50.99
2022-12-25T08:45:34.585Z,50.68
2022-12-25T08:46:30.292Z,52.56
2022-12-25T08:47:28.275Z,53.38
2022-12-25T08:48:28.224Z,52.16
2022-12-25T08:49:28.216Z,50.81
2022-12-25T08:50:28.206Z,50.32
2022-12-25T08:51:28.188Z,53.53
2022-12-25T08:52:28.170Z,50.76
2022-12-25T08:53:28.164Z,51.65
2022-12-25T08:54:28.187Z,57.02
2022-12-25T08:55:28.159Z,52.62
2022-12-25T08:56:28.129Z,55.31
2022-12-25T08:57:28.151Z,52.31
2022-12-25T08:58:28.225Z,53.02
2022-12-25T08:59:28.119Z,54.72
2022-12-25T09:00:28.120Z,53.86
2022-12-25T09:01:28.177Z,54.12
2022-12-25T09:02:28.283Z,57.66
2022-12-25T09:03:29.107Z,52.77
2022-12-25T09:04:28.051Z,51.19
2022-12-25T09:05:28.037Z,52.83
2022-12-25T09:06:28.044Z,51.62
2022-12-25T09:07:28.024Z,52.77
2022-12-25T09:08:28.009Z,51.23
2022-12-25T09:09:28.025Z,51.60
2022-12-25T09:10:28.019Z,55.94
2022-12-25T09:11:27.976Z,52.72
2022-12-25T09:12:27.951Z,55.12
2022-12-25T09:13:27.977Z,50.93
2022-12-25T09:14:27.964Z,56.07
2022-12-25T09:15:27.944Z,56.66
2022-12-25T09:16:28.004Z,52.69
2022-12-25T09:17:27.912Z,52.82
2022-12-25T09:18:27.899Z,51.04
2022-12-25T09:19:27.891Z,50.64
2022-12-25T09:20:27.906Z,54.90
2022-12-25T09:21:27.868Z,52.30
2022-12-25T09:22:27.861Z,56.75
2022-12-25T09:23:27.834Z,57.63
2022-12-25T09:24:27.821Z,54.42
2022-12-25T09:25:27.827Z,55.20
2022-12-25T09:26:27.820Z,52.13
2022-12-25T09:27:27.809Z,53.57
2022-12-25T09:28:27.800Z,53.28
2022-12-25T09:29:27.786Z,53.45
2022-12-25T09:30:27.801Z,53.69
2022-12-25T09:31:27.886Z,55.96
2022-12-25T09:32:27.753Z,54.78
2022-12-25T09:33:27.748Z,50.91
2022-12-25T09:34:27.724Z,52.14
2022-12-25T09:35:27.722Z,52.15
2022-12-25T09:36:27.681Z,53.33
2022-12-25T09:37:27.674Z,53.44
2022-12-25T09:38:27.700Z,50.82
2022-12-25T09:39:27.655Z,53.63
2022-12-25T09:40:27.652Z,50.42
2022-12-25T09:41:27.664Z,54.05
2022-12-25T09:42:27.616Z,52.99
2022-12-25T09:43:27.626Z,52.05
2022-12-25T09:44:27.631Z,52.50
2022-12-25T09:45:27.598Z,51.59
2022-12-25T09:46:34.723Z,52.53
2022-12-25T09:47:29.605Z,56.83
2022-12-25T09:48:27.558Z,54.78
2022-12-25T09:49:27.572Z,55.52
2022-12-25T09:50:27.531Z,55.12
2022-12-25T09:51:27.561Z,51.89
2022-12-25T09:52:27.521Z,50.06
2022-12-25T09:53:27.502Z,52.43
2022-12-25T09:54:27.535Z,54.36
2022-12-25T09:55:27.481Z,51.04
2022-12-25T09:56:27.464Z,52.59
2022-12-25T09:57:27.462Z,55.39
2022-12-25T09:58:27.451Z,52.74
2022-12-25T09:59:27.466Z,54.03
2022-12-25T10:00:27.465Z,52.41
2022-12-25T10:01:27.527Z,56.02
2022-12-25T10:02:27.534Z,57.02
2022-12-25T10:03:27.488Z,55.17
2022-12-25T10:04:27.383Z,54.03
2022-12-25T10:05:27.368Z,56.77
2022-12-25T10:06:28.355Z,55.70
2022-12-25T10:07:27.357Z,53.27
2022-12-25T10:08:27.335Z,55.68
2022-12-25T10:09:27.332Z,53.71
2022-12-25T10:10:27.329Z,55.38
2022-12-25T10:11:27.299Z,55.55
2022-12-25T10:12:27.406Z,56.72
2022-12-25T10:13:27.280Z,54.35
2022-12-25T10:14:27.281Z,54.19
2022-12-25T10:15:27.295Z,56.09
2022-12-25T10:16:27.283Z,55.22
2022-12-25T10:17:27.241Z,57.47
2022-12-25T10:18:27.234Z,63.38
2022-12-25T10:19:27.255Z,60.88
2022-12-25T10:20:27.225Z,55.67
2022-12-25T10:21:27.187Z,57.18
2022-12-25T10:22:27.188Z,56.21
2022-12-25T10:23:27.219Z,57.13
2022-12-25T10:24:27.185Z,55.61
2022-12-25T10:25:27.174Z,56.05
2022-12-25T10:26:27.133Z,55.75
2022-12-25T10:27:27.128Z,55.54
2022-12-25T10:28:27.108Z,57.91
2022-12-25T10:29:27.139Z,54.86
2022-12-25T10:30:27.093Z,57.45
2022-12-25T10:31:27.126Z,59.12
2022-12-25T10:32:27.072Z,57.80
2022-12-25T10:33:27.053Z,56.55
2022-12-25T10:34:27.059Z,56.85
2022-12-25T10:35:27.058Z,56.64
2022-12-25T10:36:27.021Z,54.92
2022-12-25T10:37:27.004Z,60.46
2022-12-25T10:38:27.022Z,57.86
2022-12-25T10:39:26.996Z,56.88
2022-12-25T10:40:26.993Z,60.18
2022-12-25T10:41:26.970Z,59.60
2022-12-25T10:42:26.949Z,58.65
2022-12-25T10:43:26.964Z,59.49
2022-12-25T10:44:26.917Z,62.54
2022-12-25T10:45:26.908Z,58.66
2022-12-25T10:46:26.961Z,58.32
2022-12-25T10:47:26.906Z,58.70
2022-12-25T10:48:26.887Z,59.34
2022-12-25T10:49:26.868Z,57.58
2022-12-25T10:50:26.851Z,56.55
2022-12-25T10:51:26.895Z,58.44
2022-12-25T10:52:26.857Z,57.79
2022-12-25T10:53:26.818Z,59.43
2022-12-25T10:54:26.848Z,60.27
2022-12-25T10:55:29.432Z,61.53
2022-12-25T10:56:27.794Z,64.95
2022-12-25T10:57:26.806Z,63.93
2022-12-25T10:58:26.765Z,64.11
2022-12-25T10:59:26.761Z,61.55
2022-12-25T11:00:26.752Z,62.41
2022-12-25T11:01:26.840Z,60.25
2022-12-25T11:02:26.863Z,60.56
2022-12-25T11:03:59.518Z,63.13
2022-12-25T11:04:26.711Z,60.53
2022-12-25T11:05:27.709Z,59.78
2022-12-25T11:06:26.708Z,58.97
2022-12-25T11:07:26.652Z,62.11
2022-12-25T11:08:26.670Z,59.41
2022-12-25T11:09:26.680Z,57.24
2022-12-25T11:10:26.647Z,58.02
2022-12-25T11:11:26.612Z,56.44
2022-12-25T11:12:26.634Z,57.90
2022-12-25T11:13:26.594Z,58.60
2022-12-25T11:14:26.645Z,56.14
2022-12-25T11:15:26.621Z,58.30
2022-12-25T11:16:26.749Z,56.76
2022-12-25T11:17:26.566Z,57.20
2022-12-25T11:18:26.546Z,59.84
2022-12-25T11:19:26.565Z,56.65
2022-12-25T11:20:27.522Z,59.19
2022-12-25T11:21:26.532Z,59.64
2022-12-25T11:22:26.511Z,60.19
2022-12-25T11:23:26.485Z,57.54
2022-12-25T11:24:26.484Z,59.95
2022-12-25T11:25:26.486Z,57.38
2022-12-25T11:26:26.469Z,57.92
2022-12-25T11:27:26.429Z,56.40
2022-12-25T11:28:26.471Z,54.85
2022-12-25T11:29:26.438Z,58.29
2022-12-25T11:30:26.425Z,56.46
2022-12-25T11:31:26.464Z,57.69
2022-12-25T11:32:26.384Z,55.52
2022-12-25T11:33:26.375Z,57.08
2022-12-25T11:34:26.358Z,54.40
2022-12-25T11:35:26.379Z,58.33
2022-12-25T11:36:26.336Z,60.12
2022-12-25T11:37:26.371Z,58.51
2022-12-25T11:38:26.337Z,59.51
2022-12-25T11:39:26.306Z,59.34
2022-12-25T11:40:26.317Z,57.29
2022-12-25T11:41:26.293Z,57.62
2022-12-25T11:42:26.309Z,60.65
2022-12-25T11:43:26.252Z,57.60
2022-12-25T11:44:26.277Z,58.20
2022-12-25T11:45:26.265Z,55.83
2022-12-25T11:46:26.259Z,57.40
2022-12-25T11:47:26.236Z,58.13
2022-12-25T11:48:26.230Z,57.63
2022-12-25T11:49:26.187Z,58.58
2022-12-25T11:50:26.184Z,58.05
2022-12-25T11:51:26.205Z,59.27
2022-12-25T11:52:26.176Z,58.81
2022-12-25T11:53:26.129Z,62.08
2022-12-25T11:54:26.163Z,64.14
2022-12-25T11:55:26.140Z,62.02
2022-12-25T11:56:26.139Z,63.23
2022-12-25T11:57:26.096Z,64.92
2022-12-25T11:58:26.100Z,65.01
2022-12-25T11:59:26.128Z,64.41
2022-12-25T12:00:26.071Z,62.70
2022-12-25T12:01:26.130Z,62.93
2022-12-25T12:02:26.126Z,63.64
2022-12-25T12:03:26.084Z,63.14
2022-12-25T12:04:30.844Z,63.66
2022-12-25T12:05:28.033Z,61.68
2022-12-25T12:06:26.020Z,62.37
2022-12-25T12:07:25.980Z,63.44
2022-12-25T12:08:26.022Z,62.43
2022-12-25T12:09:25.957Z,62.97
2022-12-25T12:10:25.949Z,63.27
2022-12-25T12:11:25.997Z,62.52
2022-12-25T12:12:25.927Z,62.10
2022-12-25T12:13:25.935Z,60.73
2022-12-25T12:14:25.910Z,60.18
2022-12-25T12:15:25.920Z,61.40
2022-12-25T12:16:25.965Z,59.29
2022-12-25T12:17:25.892Z,58.53
2022-12-25T12:18:25.895Z,60.64
2022-12-25T12:19:25.878Z,61.02
2022-12-25T12:20:25.832Z,60.71
2022-12-25T12:21:25.855Z,61.83
2022-12-25T12:22:25.834Z,59.73
2022-12-25T12:23:25.796Z,57.00
2022-12-25T12:24:25.797Z,56.41
2022-12-25T12:25:25.803Z,57.83
2022-12-25T12:26:25.803Z,55.25
2022-12-25T12:27:25.756Z,57.09
2022-12-25T12:28:25.752Z,57.75
2022-12-25T12:29:25.772Z,57.89
2022-12-25T12:30:25.730Z,55.64
2022-12-25T12:31:25.758Z,58.17
2022-12-25T12:32:25.719Z,53.20
2022-12-25T12:33:25.688Z,54.16
2022-12-25T12:34:25.688Z,56.14
2022-12-25T12:35:25.700Z,52.17
2022-12-25T12:36:35.540Z,54.02
2022-12-25T12:37:26.621Z,56.47
2022-12-25T12:38:25.644Z,53.54
2022-12-25T12:39:25.657Z,57.45
2022-12-25T12:40:25.639Z,56.08
2022-12-25T12:41:25.629Z,56.59
2022-12-25T12:42:25.597Z,55.22
2022-12-25T12:43:25.553Z,53.74
2022-12-25T12:44:25.584Z,54.49
2022-12-25T12:45:25.690Z,58.65
2022-12-25T12:46:30.669Z,51.82
2022-12-25T12:47:27.512Z,56.11
2022-12-25T12:48:25.557Z,54.79
2022-12-25T12:49:25.600Z,55.28
2022-12-25T12:50:25.530Z,53.59
2022-12-25T12:51:25.536Z,57.30
2022-12-25T12:52:25.491Z,56.41